sensor_id;sensor_type;location;lat;lon;timestamp;P1;durP1;ratioP1;P2;durP2;ratioP2
3355;SDS011;1691;52.486;13.374;2024-03-08T00:00:09;35.47;;;19.20;;
3355;SDS011;1691;52.486;13.374;2024-03-08T00:02:42;41.47;;;18.90;;
3355;SDS011;1691;52.486;13.374;2024-03-08T00:05:11;36.53;;;19.80;;
3355;SDS011;1691;52.486;13.374;2024-03-08T00:07:39;32.87;;;18.87;;
3355;SDS011;1691;52.486;13.374;2024-03-08T00:10:08;33.40;;;18.50;;
3355;SDS011;1691;52.486;13.374;2024-03-08T00:12:41;31.43;;;18.20;;
3355;SDS011;1691;52.486;13.374;2024-03-08T00:15:14;34.43;;;17.03;;
3355;SDS011;1691;52.486;13.374;2024-03-08T00:17:45;30.00;;;17.37;;
3355;SDS011;1691;52.486;13.374;2024-03-08T00:20:14;31.40;;;17.10;;
3355;SDS011;1691;52.486;13.374;2024-03-08T00:22:45;29.07;;;17.30;;
3355;SDS011;1691;52.486;13.374;2024-03-08T00:25:12;31.73;;;18.30;;
3355;SDS011;1691;52.486;13.374;2024-03-08T00:27:39;33.20;;;18.00;;
3355;SDS011;1691;52.486;13.374;2024-03-08T00:30:10;30.13;;;16.40;;
3355;SDS011;1691;52.486;13.374;2024-03-08T00:32:39;35.50;;;18.93;;
3355;SDS011;1691;52.486;13.374;2024-03-08T00:35:07;34.70;;;17.70;;
3355;SDS011;1691;52.486;13.374;2024-03-08T00:37:35;32.67;;;18.27;;
3355;SDS011;1691;52.486;13.374;2024-03-08T00:40:02;24.60;;;16.43;;
3355;SDS011;1691;52.486;13.374;2024-03-08T00:42:30;30.87;;;17.80;;
3355;SDS011;1691;52.486;13.374;2024-03-08T00:44:57;25.73;;;16.23;;
3355;SDS011;1691;52.486;13.374;2024-03-08T00:47:25;30.77;;;16.60;;
3355;SDS011;1691;52.486;13.374;2024-03-08T00:49:53;27.23;;;16.00;;
3355;SDS011;1691;52.486;13.374;2024-03-08T00:52:22;28.33;;;17.40;;
3355;SDS011;1691;52.486;13.374;2024-03-08T00:54:53;44.07;;;18.40;;
3355;SDS011;1691;52.486;13.374;2024-03-08T00:57:21;32.33;;;17.50;;
3355;SDS011;1691;52.486;13.374;2024-03-08T00:59:48;27.50;;;17.20;;
3355;SDS011;1691;52.486;13.374;2024-03-08T01:02:15;28.90;;;15.80;;
3355;SDS011;1691;52.486;13.374;2024-03-08T01:04:45;30.40;;;17.43;;
3355;SDS011;1691;52.486;13.374;2024-03-08T01:07:30;27.27;;;15.50;;
3355;SDS011;1691;52.486;13.374;2024-03-08T01:10:13;31.07;;;17.00;;
3355;SDS011;1691;52.486;13.374;2024-03-08T01:13:03;31.03;;;17.43;;
3355;SDS011;1691;52.486;13.374;2024-03-08T01:16:07;34.03;;;16.57;;
3355;SDS011;1691;52.486;13.374;2024-03-08T01:18:45;31.87;;;18.07;;
3355;SDS011;1691;52.486;13.374;2024-03-08T01:21:30;30.23;;;16.53;;
3355;SDS011;1691;52.486;13.374;2024-03-08T01:24:07;28.77;;;17.00;;
3355;SDS011;1691;52.486;13.374;2024-03-08T01:26:47;39.43;;;18.33;;
3355;SDS011;1691;52.486;13.374;2024-03-08T01:29:36;34.83;;;17.87;;
3355;SDS011;1691;52.486;13.374;2024-03-08T01:32:28;31.07;;;16.87;;
3355;SDS011;1691;52.486;13.374;2024-03-08T01:35:09;33.30;;;16.60;;
3355;SDS011;1691;52.486;13.374;2024-03-08T01:37:53;35.83;;;18.03;;
3355;SDS011;1691;52.486;13.374;2024-03-08T01:40:24;29.37;;;16.80;;
3355;SDS011;1691;52.486;13.374;2024-03-08T01:43:21;33.80;;;17.80;;
3355;SDS011;1691;52.486;13.374;2024-03-08T01:46:23;30.73;;;17.10;;
3355;SDS011;1691;52.486;13.374;2024-03-08T01:49:22;27.20;;;16.73;;
3355;SDS011;1691;52.486;13.374;2024-03-08T01:52:37;24.70;;;15.20;;
3355;SDS011;1691;52.486;13.374;2024-03-08T01:55:19;35.53;;;19.93;;
3355;SDS011;1691;52.486;13.374;2024-03-08T01:58:17;31.73;;;15.10;;
3355;SDS011;1691;52.486;13.374;2024-03-08T02:01:12;27.60;;;17.00;;
3355;SDS011;1691;52.486;13.374;2024-03-08T02:04:15;30.17;;;17.23;;
3355;SDS011;1691;52.486;13.374;2024-03-08T02:06:45;29.63;;;17.03;;
3355;SDS011;1691;52.486;13.374;2024-03-08T02:09:35;26.83;;;16.70;;
3355;SDS011;1691;52.486;13.374;2024-03-08T02:12:04;26.20;;;15.53;;
3355;SDS011;1691;52.486;13.374;2024-03-08T02:14:58;30.00;;;16.83;;
3355;SDS011;1691;52.486;13.374;2024-03-08T02:17:46;29.00;;;16.50;;
3355;SDS011;1691;52.486;13.374;2024-03-08T02:20:55;26.43;;;16.10;;
3355;SDS011;1691;52.486;13.374;2024-03-08T02:23:33;28.37;;;16.60;;
3355;SDS011;1691;52.486;13.374;2024-03-08T02:26:07;34.10;;;17.57;;
3355;SDS011;1691;52.486;13.374;2024-03-08T02:28:46;25.90;;;16.27;;
3355;SDS011;1691;52.486;13.374;2024-03-08T02:31:22;30.00;;;17.13;;
3355;SDS011;1691;52.486;13.374;2024-03-08T02:33:49;27.80;;;16.60;;
3355;SDS011;1691;52.486;13.374;2024-03-08T02:36:16;31.00;;;17.77;;
3355;SDS011;1691;52.486;13.374;2024-03-08T02:38:43;38.00;;;16.07;;
3355;SDS011;1691;52.486;13.374;2024-03-08T02:41:10;30.40;;;17.30;;
3355;SDS011;1691;52.486;13.374;2024-03-08T02:43:38;29.67;;;17.63;;
3355;SDS011;1691;52.486;13.374;2024-03-08T02:46:05;30.37;;;16.90;;
3355;SDS011;1691;52.486;13.374;2024-03-08T02:48:32;31.77;;;17.20;;
3355;SDS011;1691;52.486;13.374;2024-03-08T02:50:59;30.90;;;17.80;;
3355;SDS011;1691;52.486;13.374;2024-03-08T02:53:28;36.10;;;17.43;;
3355;SDS011;1691;52.486;13.374;2024-03-08T02:55:55;29.23;;;16.80;;
3355;SDS011;1691;52.486;13.374;2024-03-08T02:58:22;33.50;;;19.00;;
3355;SDS011;1691;52.486;13.374;2024-03-08T03:00:49;30.73;;;16.57;;
3355;SDS011;1691;52.486;13.374;2024-03-08T03:03:16;31.03;;;16.77;;
3355;SDS011;1691;52.486;13.374;2024-03-08T03:05:43;30.27;;;17.37;;
3355;SDS011;1691;52.486;13.374;2024-03-08T03:08:14;30.57;;;17.57;;
3355;SDS011;1691;52.486;13.374;2024-03-08T03:10:43;31.07;;;16.70;;
3355;SDS011;1691;52.486;13.374;2024-03-08T03:13:10;30.23;;;17.00;;
3355;SDS011;1691;52.486;13.374;2024-03-08T03:15:38;31.63;;;18.07;;
3355;SDS011;1691;52.486;13.374;2024-03-08T03:18:08;33.10;;;16.43;;
3355;SDS011;1691;52.486;13.374;2024-03-08T03:20:36;33.43;;;17.27;;
3355;SDS011;1691;52.486;13.374;2024-03-08T03:23:10;34.20;;;17.57;;
3355;SDS011;1691;52.486;13.374;2024-03-08T03:25:42;26.97;;;15.70;;
3355;SDS011;1691;52.486;13.374;2024-03-08T03:28:09;34.07;;;17.73;;
3355;SDS011;1691;52.486;13.374;2024-03-08T03:30:37;32.20;;;17.20;;
3355;SDS011;1691;52.486;13.374;2024-03-08T03:33:05;34.73;;;18.20;;
3355;SDS011;1691;52.486;13.374;2024-03-08T03:35:36;37.93;;;18.33;;
3355;SDS011;1691;52.486;13.374;2024-03-08T03:38:04;30.10;;;17.40;;
3355;SDS011;1691;52.486;13.374;2024-03-08T03:40:37;28.70;;;17.80;;
3355;SDS011;1691;52.486;13.374;2024-03-08T03:43:06;34.30;;;19.00;;
3355;SDS011;1691;52.486;13.374;2024-03-08T03:45:34;32.90;;;18.37;;
3355;SDS011;1691;52.486;13.374;2024-03-08T03:48:06;34.00;;;18.13;;
3355;SDS011;1691;52.486;13.374;2024-03-08T03:50:38;35.03;;;19.27;;
3355;SDS011;1691;52.486;13.374;2024-03-08T03:53:06;32.30;;;17.53;;
3355;SDS011;1691;52.486;13.374;2024-03-08T03:55:36;37.87;;;20.20;;
3355;SDS011;1691;52.486;13.374;2024-03-08T03:58:06;34.57;;;17.27;;
3355;SDS011;1691;52.486;13.374;2024-03-08T04:00:34;35.03;;;18.20;;
3355;SDS011;1691;52.486;13.374;2024-03-08T04:03:01;34.23;;;17.90;;
3355;SDS011;1691;52.486;13.374;2024-03-08T04:05:28;32.30;;;19.03;;
3355;SDS011;1691;52.486;13.374;2024-03-08T04:07:55;42.47;;;19.30;;
3355;SDS011;1691;52.486;13.374;2024-03-08T04:10:23;34.77;;;16.57;;
3355;SDS011;1691;52.486;13.374;2024-03-08T04:12:50;34.57;;;19.50;;
3355;SDS011;1691;52.486;13.374;2024-03-08T04:15:17;33.23;;;19.27;;
3355;SDS011;1691;52.486;13.374;2024-03-08T04:17:44;37.27;;;21.03;;
3355;SDS011;1691;52.486;13.374;2024-03-08T04:20:12;42.53;;;20.00;;
3355;SDS011;1691;52.486;13.374;2024-03-08T04:22:41;37.30;;;21.27;;
3355;SDS011;1691;52.486;13.374;2024-03-08T04:25:10;32.17;;;18.00;;
3355;SDS011;1691;52.486;13.374;2024-03-08T04:27:38;30.73;;;17.23;;
3355;SDS011;1691;52.486;13.374;2024-03-08T04:30:05;34.83;;;18.73;;
3355;SDS011;1691;52.486;13.374;2024-03-08T04:32:35;34.13;;;19.97;;
3355;SDS011;1691;52.486;13.374;2024-03-08T04:35:04;40.10;;;22.33;;
3355;SDS011;1691;52.486;13.374;2024-03-08T04:37:31;35.03;;;18.30;;
3355;SDS011;1691;52.486;13.374;2024-03-08T04:39:58;45.83;;;21.23;;
3355;SDS011;1691;52.486;13.374;2024-03-08T04:42:26;47.83;;;20.80;;
3355;SDS011;1691;52.486;13.374;2024-03-08T04:44:56;46.03;;;19.67;;
3355;SDS011;1691;52.486;13.374;2024-03-08T04:47:23;40.97;;;20.07;;
3355;SDS011;1691;52.486;13.374;2024-03-08T04:49:51;42.27;;;21.17;;
3355;SDS011;1691;52.486;13.374;2024-03-08T04:52:19;39.40;;;19.93;;
3355;SDS011;1691;52.486;13.374;2024-03-08T04:54:48;39.33;;;20.53;;
3355;SDS011;1691;52.486;13.374;2024-03-08T04:57:15;38.37;;;19.70;;
3355;SDS011;1691;52.486;13.374;2024-03-08T04:59:45;52.90;;;19.53;;
3355;SDS011;1691;52.486;13.374;2024-03-08T05:02:12;34.23;;;19.03;;
3355;SDS011;1691;52.486;13.374;2024-03-08T05:04:39;34.40;;;18.53;;
3355;SDS011;1691;52.486;13.374;2024-03-08T05:07:08;48.63;;;21.00;;
3355;SDS011;1691;52.486;13.374;2024-03-08T05:09:35;36.17;;;19.50;;
3355;SDS011;1691;52.486;13.374;2024-03-08T05:12:02;32.83;;;19.47;;
3355;SDS011;1691;52.486;13.374;2024-03-08T05:14:30;39.60;;;20.30;;
3355;SDS011;1691;52.486;13.374;2024-03-08T05:16:57;44.13;;;21.87;;
3355;SDS011;1691;52.486;13.374;2024-03-08T05:19:24;43.07;;;19.50;;
3355;SDS011;1691;52.486;13.374;2024-03-08T05:21:51;39.10;;;20.00;;
3355;SDS011;1691;52.486;13.374;2024-03-08T05:24:19;37.97;;;20.80;;
3355;SDS011;1691;52.486;13.374;2024-03-08T05:26:46;41.10;;;20.50;;
3355;SDS011;1691;52.486;13.374;2024-03-08T05:29:14;53.67;;;22.63;;
3355;SDS011;1691;52.486;13.374;2024-03-08T05:34:21;39.67;;;20.50;;
3355;SDS011;1691;52.486;13.374;2024-03-08T05:36:49;40.93;;;21.80;;
3355;SDS011;1691;52.486;13.374;2024-03-08T05:39:17;44.00;;;20.90;;
3355;SDS011;1691;52.486;13.374;2024-03-08T05:41:46;46.03;;;21.27;;
3355;SDS011;1691;52.486;13.374;2024-03-08T05:44:14;41.80;;;22.00;;
3355;SDS011;1691;52.486;13.374;2024-03-08T05:46:43;41.07;;;21.17;;
3355;SDS011;1691;52.486;13.374;2024-03-08T05:49:11;35.27;;;20.17;;
3355;SDS011;1691;52.486;13.374;2024-03-08T05:51:39;43.70;;;22.30;;
3355;SDS011;1691;52.486;13.374;2024-03-08T05:54:07;43.27;;;22.70;;
3355;SDS011;1691;52.486;13.374;2024-03-08T05:56:37;30.77;;;19.13;;
3355;SDS011;1691;52.486;13.374;2024-03-08T05:59:08;36.40;;;20.93;;
3355;SDS011;1691;52.486;13.374;2024-03-08T06:01:36;41.57;;;21.57;;
3355;SDS011;1691;52.486;13.374;2024-03-08T06:04:04;38.47;;;21.13;;
3355;SDS011;1691;52.486;13.374;2024-03-08T06:06:31;38.97;;;20.50;;
3355;SDS011;1691;52.486;13.374;2024-03-08T06:08:58;38.13;;;20.40;;
3355;SDS011;1691;52.486;13.374;2024-03-08T06:11:26;40.87;;;20.77;;
3355;SDS011;1691;52.486;13.374;2024-03-08T06:13:58;32.57;;;19.87;;
3355;SDS011;1691;52.486;13.374;2024-03-08T06:16:27;35.20;;;19.83;;
3355;SDS011;1691;52.486;13.374;2024-03-08T06:18:58;34.63;;;20.20;;
3355;SDS011;1691;52.486;13.374;2024-03-08T06:21:27;35.67;;;20.97;;
3355;SDS011;1691;52.486;13.374;2024-03-08T06:23:54;31.50;;;20.03;;
3355;SDS011;1691;52.486;13.374;2024-03-08T06:26:21;34.30;;;19.13;;
3355;SDS011;1691;52.486;13.374;2024-03-08T06:28:49;32.57;;;19.40;;
3355;SDS011;1691;52.486;13.374;2024-03-08T06:31:17;36.27;;;21.33;;
3355;SDS011;1691;52.486;13.374;2024-03-08T06:33:44;42.67;;;21.83;;
3355;SDS011;1691;52.486;13.374;2024-03-08T06:36:11;50.17;;;22.80;;
3355;SDS011;1691;52.486;13.374;2024-03-08T06:38:38;50.07;;;21.67;;
3355;SDS011;1691;52.486;13.374;2024-03-08T06:41:09;40.00;;;22.20;;
3355;SDS011;1691;52.486;13.374;2024-03-08T06:43:42;46.60;;;21.10;;
3355;SDS011;1691;52.486;13.374;2024-03-08T06:46:14;40.90;;;22.10;;
3355;SDS011;1691;52.486;13.374;2024-03-08T06:48:42;44.93;;;20.73;;
3355;SDS011;1691;52.486;13.374;2024-03-08T06:51:09;44.00;;;22.50;;
3355;SDS011;1691;52.486;13.374;2024-03-08T06:53:37;35.23;;;22.70;;
3355;SDS011;1691;52.486;13.374;2024-03-08T06:56:05;38.43;;;22.10;;
3355;SDS011;1691;52.486;13.374;2024-03-08T06:58:34;33.83;;;20.57;;
3355;SDS011;1691;52.486;13.374;2024-03-08T07:01:01;40.20;;;22.03;;
3355;SDS011;1691;52.486;13.374;2024-03-08T07:03:30;39.60;;;21.63;;
3355;SDS011;1691;52.486;13.374;2024-03-08T07:05:59;36.40;;;20.93;;
3355;SDS011;1691;52.486;13.374;2024-03-08T07:08:28;37.37;;;21.00;;
3355;SDS011;1691;52.486;13.374;2024-03-08T07:10:56;42.27;;;21.73;;
3355;SDS011;1691;52.486;13.374;2024-03-08T07:13:25;35.80;;;21.00;;
3355;SDS011;1691;52.486;13.374;2024-03-08T07:15:55;50.73;;;21.93;;
3355;SDS011;1691;52.486;13.374;2024-03-08T07:18:22;35.07;;;18.90;;
3355;SDS011;1691;52.486;13.374;2024-03-08T07:20:49;37.40;;;21.90;;
3355;SDS011;1691;52.486;13.374;2024-03-08T07:23:17;36.20;;;20.87;;
3355;SDS011;1691;52.486;13.374;2024-03-08T07:26:03;43.70;;;21.00;;
3355;SDS011;1691;52.486;13.374;2024-03-08T07:28:30;35.33;;;20.27;;
3355;SDS011;1691;52.486;13.374;2024-03-08T07:30:58;32.07;;;20.17;;
3355;SDS011;1691;52.486;13.374;2024-03-08T07:33:49;34.17;;;21.30;;
3355;SDS011;1691;52.486;13.374;2024-03-08T07:36:17;39.30;;;22.20;;
3355;SDS011;1691;52.486;13.374;2024-03-08T07:38:44;32.63;;;20.80;;
3355;SDS011;1691;52.486;13.374;2024-03-08T07:41:17;40.70;;;22.30;;
3355;SDS011;1691;52.486;13.374;2024-03-08T07:43:44;34.33;;;20.03;;
3355;SDS011;1691;52.486;13.374;2024-03-08T07:46:11;33.17;;;20.73;;
3355;SDS011;1691;52.486;13.374;2024-03-08T07:48:39;39.40;;;22.10;;
3355;SDS011;1691;52.486;13.374;2024-03-08T07:51:07;43.07;;;21.43;;
3355;SDS011;1691;52.486;13.374;2024-03-08T07:53:36;34.93;;;21.20;;
3355;SDS011;1691;52.486;13.374;2024-03-08T07:56:04;33.03;;;19.60;;
3355;SDS011;1691;52.486;13.374;2024-03-08T07:58:32;35.20;;;22.20;;
3355;SDS011;1691;52.486;13.374;2024-03-08T08:01:01;38.00;;;21.13;;
3355;SDS011;1691;52.486;13.374;2024-03-08T08:03:28;44.70;;;22.70;;
3355;SDS011;1691;52.486;13.374;2024-03-08T08:05:55;36.50;;;23.80;;
3355;SDS011;1691;52.486;13.374;2024-03-08T08:08:22;37.60;;;22.03;;
3355;SDS011;1691;52.486;13.374;2024-03-08T08:10:50;29.33;;;19.53;;
3355;SDS011;1691;52.486;13.374;2024-03-08T08:13:17;36.70;;;24.13;;
3355;SDS011;1691;52.486;13.374;2024-03-08T08:15:44;33.80;;;20.60;;
3355;SDS011;1691;52.486;13.374;2024-03-08T08:18:12;36.70;;;21.20;;
3355;SDS011;1691;52.486;13.374;2024-03-08T08:20:40;38.93;;;20.67;;
3355;SDS011;1691;52.486;13.374;2024-03-08T08:23:07;33.90;;;19.20;;
3355;SDS011;1691;52.486;13.374;2024-03-08T08:25:38;44.97;;;25.13;;
3355;SDS011;1691;52.486;13.374;2024-03-08T08:28:05;37.27;;;22.80;;
3355;SDS011;1691;52.486;13.374;2024-03-08T08:30:32;36.60;;;21.33;;
3355;SDS011;1691;52.486;13.374;2024-03-08T08:33:00;39.07;;;22.07;;
3355;SDS011;1691;52.486;13.374;2024-03-08T08:35:27;36.50;;;21.97;;
3355;SDS011;1691;52.486;13.374;2024-03-08T08:37:55;35.23;;;20.90;;
3355;SDS011;1691;52.486;13.374;2024-03-08T08:40:22;30.87;;;19.00;;
3355;SDS011;1691;52.486;13.374;2024-03-08T08:42:51;30.90;;;20.57;;
3355;SDS011;1691;52.486;13.374;2024-03-08T08:45:19;31.93;;;18.90;;
3355;SDS011;1691;52.486;13.374;2024-03-08T08:47:51;29.73;;;18.30;;
3355;SDS011;1691;52.486;13.374;2024-03-08T08:50:19;32.60;;;20.23;;
3355;SDS011;1691;52.486;13.374;2024-03-08T08:52:50;35.27;;;18.37;;
3355;SDS011;1691;52.486;13.374;2024-03-08T08:55:17;34.97;;;21.87;;
3355;SDS011;1691;52.486;13.374;2024-03-08T08:57:47;30.43;;;20.43;;
3355;SDS011;1691;52.486;13.374;2024-03-08T09:00:15;35.70;;;22.17;;
3355;SDS011;1691;52.486;13.374;2024-03-08T09:02:43;33.83;;;21.07;;
3355;SDS011;1691;52.486;13.374;2024-03-08T09:05:10;32.53;;;20.67;;
3355;SDS011;1691;52.486;13.374;2024-03-08T09:07:38;35.53;;;20.30;;
3355;SDS011;1691;52.486;13.374;2024-03-08T09:10:06;30.83;;;19.90;;
3355;SDS011;1691;52.486;13.374;2024-03-08T09:12:38;36.37;;;21.50;;
3355;SDS011;1691;52.486;13.374;2024-03-08T09:15:06;30.93;;;19.90;;
3355;SDS011;1691;52.486;13.374;2024-03-08T09:17:40;45.03;;;21.60;;
3355;SDS011;1691;52.486;13.374;2024-03-08T09:20:09;35.37;;;22.50;;
3355;SDS011;1691;52.486;13.374;2024-03-08T09:22:44;35.13;;;22.27;;
3355;SDS011;1691;52.486;13.374;2024-03-08T09:25:12;32.50;;;20.90;;
3355;SDS011;1691;52.486;13.374;2024-03-08T09:27:39;35.07;;;21.80;;
3355;SDS011;1691;52.486;13.374;2024-03-08T09:30:07;36.90;;;22.30;;
3355;SDS011;1691;52.486;13.374;2024-03-08T09:32:35;32.97;;;19.27;;
3355;SDS011;1691;52.486;13.374;2024-03-08T09:35:03;29.90;;;18.83;;
3355;SDS011;1691;52.486;13.374;2024-03-08T09:37:34;27.70;;;20.50;;
3355;SDS011;1691;52.486;13.374;2024-03-08T09:40:01;31.27;;;20.40;;
3355;SDS011;1691;52.486;13.374;2024-03-08T09:42:35;32.57;;;18.73;;
3355;SDS011;1691;52.486;13.374;2024-03-08T09:45:08;31.53;;;21.03;;
3355;SDS011;1691;52.486;13.374;2024-03-08T09:47:43;25.77;;;16.73;;
3355;SDS011;1691;52.486;13.374;2024-03-08T09:50:11;32.17;;;17.83;;
3355;SDS011;1691;52.486;13.374;2024-03-08T09:52:42;30.77;;;18.87;;
3355;SDS011;1691;52.486;13.374;2024-03-08T09:55:12;28.00;;;18.10;;
3355;SDS011;1691;52.486;13.374;2024-03-08T09:57:39;28.70;;;17.03;;
3355;SDS011;1691;52.486;13.374;2024-03-08T10:00:09;23.20;;;16.30;;
3355;SDS011;1691;52.486;13.374;2024-03-08T10:02:50;27.43;;;18.30;;
3355;SDS011;1691;52.486;13.374;2024-03-08T10:05:20;22.27;;;16.10;;
3355;SDS011;1691;52.486;13.374;2024-03-08T10:07:48;27.77;;;18.27;;
3355;SDS011;1691;52.486;13.374;2024-03-08T10:10:15;20.80;;;15.60;;
3355;SDS011;1691;52.486;13.374;2024-03-08T10:12:42;27.93;;;16.90;;
3355;SDS011;1691;52.486;13.374;2024-03-08T10:15:10;28.03;;;17.40;;
3355;SDS011;1691;52.486;13.374;2024-03-08T10:17:38;26.33;;;17.00;;
3355;SDS011;1691;52.486;13.374;2024-03-08T10:20:15;27.60;;;13.33;;
3355;SDS011;1691;52.486;13.374;2024-03-08T10:22:44;23.77;;;16.13;;
3355;SDS011;1691;52.486;13.374;2024-03-08T10:25:28;25.60;;;16.20;;
3355;SDS011;1691;52.486;13.374;2024-03-08T10:27:56;36.60;;;15.70;;
3355;SDS011;1691;52.486;13.374;2024-03-08T10:30:24;21.90;;;15.10;;
3355;SDS011;1691;52.486;13.374;2024-03-08T10:32:51;20.37;;;14.77;;
3355;SDS011;1691;52.486;13.374;2024-03-08T10:35:18;26.17;;;16.57;;
3355;SDS011;1691;52.486;13.374;2024-03-08T10:37:49;21.13;;;15.30;;
3355;SDS011;1691;52.486;13.374;2024-03-08T10:40:27;20.43;;;15.37;;
3355;SDS011;1691;52.486;13.374;2024-03-08T10:42:58;26.00;;;17.20;;
3355;SDS011;1691;52.486;13.374;2024-03-08T10:48:28;24.80;;;15.90;;
3355;SDS011;1691;52.486;13.374;2024-03-08T10:51:05;24.10;;;15.00;;
3355;SDS011;1691;52.486;13.374;2024-03-08T10:53:34;18.67;;;13.67;;
3355;SDS011;1691;52.486;13.374;2024-03-08T10:56:03;20.10;;;13.77;;
3355;SDS011;1691;52.486;13.374;2024-03-08T10:58:31;23.03;;;13.97;;
3355;SDS011;1691;52.486;13.374;2024-03-08T11:00:58;23.30;;;16.13;;
3355;SDS011;1691;52.486;13.374;2024-03-08T11:06:18;24.20;;;16.10;;
3355;SDS011;1691;52.486;13.374;2024-03-08T11:09:49;23.80;;;15.50;;
3355;SDS011;1691;52.486;13.374;2024-03-08T11:14:59;26.30;;;14.83;;
3355;SDS011;1691;52.486;13.374;2024-03-08T11:20:09;21.57;;;14.67;;
3355;SDS011;1691;52.486;13.374;2024-03-08T11:22:48;21.80;;;15.40;;
3355;SDS011;1691;52.486;13.374;2024-03-08T11:25:31;24.50;;;16.57;;
3355;SDS011;1691;52.486;13.374;2024-03-08T11:28:16;23.93;;;15.40;;
3355;SDS011;1691;52.486;13.374;2024-03-08T11:31:21;20.23;;;14.70;;
3355;SDS011;1691;52.486;13.374;2024-03-08T11:33:37;25.57;;;15.60;;
3355;SDS011;1691;52.486;13.374;2024-03-08T11:36:10;25.67;;;15.30;;
3355;SDS011;1691;52.486;13.374;2024-03-08T11:38:43;26.60;;;14.90;;
3355;SDS011;1691;52.486;13.374;2024-03-08T11:41:10;28.23;;;15.90;;
3355;SDS011;1691;52.486;13.374;2024-03-08T11:43:44;27.03;;;16.40;;
3355;SDS011;1691;52.486;13.374;2024-03-08T11:46:12;21.70;;;13.27;;
3355;SDS011;1691;52.486;13.374;2024-03-08T11:48:42;22.60;;;14.30;;
3355;SDS011;1691;52.486;13.374;2024-03-08T11:51:14;26.37;;;15.17;;
3355;SDS011;1691;52.486;13.374;2024-03-08T11:53:44;20.00;;;13.13;;
3355;SDS011;1691;52.486;13.374;2024-03-08T11:56:14;32.10;;;13.80;;
3355;SDS011;1691;52.486;13.374;2024-03-08T11:58:42;25.20;;;13.37;;
3355;SDS011;1691;52.486;13.374;2024-03-08T12:01:27;20.33;;;12.37;;
3355;SDS011;1691;52.486;13.374;2024-03-08T12:03:54;28.07;;;13.87;;
3355;SDS011;1691;52.486;13.374;2024-03-08T12:06:26;22.00;;;11.73;;
3355;SDS011;1691;52.486;13.374;2024-03-08T12:09:09;18.50;;;11.50;;
3355;SDS011;1691;52.486;13.374;2024-03-08T12:11:39;15.50;;;11.27;;
3355;SDS011;1691;52.486;13.374;2024-03-08T12:14:07;16.90;;;11.83;;
3355;SDS011;1691;52.486;13.374;2024-03-08T12:16:36;18.67;;;12.70;;
3355;SDS011;1691;52.486;13.374;2024-03-08T12:19:03;20.50;;;14.70;;
3355;SDS011;1691;52.486;13.374;2024-03-08T12:21:31;30.07;;;14.80;;
3355;SDS011;1691;52.486;13.374;2024-03-08T12:26:36;26.60;;;15.50;;
3355;SDS011;1691;52.486;13.374;2024-03-08T12:29:20;23.43;;;15.60;;
3355;SDS011;1691;52.486;13.374;2024-03-08T12:31:51;25.57;;;15.37;;
3355;SDS011;1691;52.486;13.374;2024-03-08T12:34:24;28.90;;;16.20;;
3355;SDS011;1691;52.486;13.374;2024-03-08T12:36:54;24.80;;;15.50;;
3355;SDS011;1691;52.486;13.374;2024-03-08T12:39:22;18.67;;;12.73;;
3355;SDS011;1691;52.486;13.374;2024-03-08T12:41:54;24.17;;;14.93;;
3355;SDS011;1691;52.486;13.374;2024-03-08T12:44:21;25.37;;;15.17;;
3355;SDS011;1691;52.486;13.374;2024-03-08T12:46:48;31.60;;;14.63;;
3355;SDS011;1691;52.486;13.374;2024-03-08T12:49:19;28.77;;;15.03;;
3355;SDS011;1691;52.486;13.374;2024-03-08T12:51:49;17.43;;;12.70;;
3355;SDS011;1691;52.486;13.374;2024-03-08T12:54:19;28.70;;;15.27;;
3355;SDS011;1691;52.486;13.374;2024-03-08T12:56:50;22.43;;;12.83;;
3355;SDS011;1691;52.486;13.374;2024-03-08T12:59:20;27.03;;;13.43;;
3355;SDS011;1691;52.486;13.374;2024-03-08T13:01:48;31.47;;;15.37;;
3355;SDS011;1691;52.486;13.374;2024-03-08T13:04:17;26.03;;;15.27;;
3355;SDS011;1691;52.486;13.374;2024-03-08T13:06:45;28.77;;;15.30;;
3355;SDS011;1691;52.486;13.374;2024-03-08T13:09:19;22.03;;;14.90;;
3355;SDS011;1691;52.486;13.374;2024-03-08T13:11:46;22.03;;;14.67;;
3355;SDS011;1691;52.486;13.374;2024-03-08T13:14:13;18.90;;;12.10;;
3355;SDS011;1691;52.486;13.374;2024-03-08T13:16:41;20.83;;;13.80;;
3355;SDS011;1691;52.486;13.374;2024-03-08T13:19:08;30.33;;;15.60;;
3355;SDS011;1691;52.486;13.374;2024-03-08T13:21:35;33.33;;;14.03;;
3355;SDS011;1691;52.486;13.374;2024-03-08T13:24:02;22.20;;;16.10;;
3355;SDS011;1691;52.486;13.374;2024-03-08T13:26:29;23.83;;;14.60;;
3355;SDS011;1691;52.486;13.374;2024-03-08T13:29:00;26.60;;;15.47;;
3355;SDS011;1691;52.486;13.374;2024-03-08T13:31:27;26.53;;;15.97;;
3355;SDS011;1691;52.486;13.374;2024-03-08T13:33:54;23.23;;;14.00;;
3355;SDS011;1691;52.486;13.374;2024-03-08T13:36:25;21.97;;;14.33;;
3355;SDS011;1691;52.486;13.374;2024-03-08T13:38:55;25.23;;;14.33;;
3355;SDS011;1691;52.486;13.374;2024-03-08T13:41:25;21.53;;;13.83;;
3355;SDS011;1691;52.486;13.374;2024-03-08T13:43:56;21.00;;;14.47;;
3355;SDS011;1691;52.486;13.374;2024-03-08T13:46:23;25.37;;;14.07;;
3355;SDS011;1691;52.486;13.374;2024-03-08T13:48:51;19.00;;;13.63;;
3355;SDS011;1691;52.486;13.374;2024-03-08T13:51:20;20.23;;;13.50;;
3355;SDS011;1691;52.486;13.374;2024-03-08T13:53:49;31.17;;;14.03;;
3355;SDS011;1691;52.486;13.374;2024-03-08T13:56:16;19.30;;;12.40;;
3355;SDS011;1691;52.486;13.374;2024-03-08T13:58:43;27.00;;;14.70;;
3355;SDS011;1691;52.486;13.374;2024-03-08T14:01:10;18.47;;;12.77;;
3355;SDS011;1691;52.486;13.374;2024-03-08T14:03:38;22.33;;;14.03;;
3355;SDS011;1691;52.486;13.374;2024-03-08T14:06:09;28.47;;;13.70;;
3355;SDS011;1691;52.486;13.374;2024-03-08T14:08:50;24.93;;;13.20;;
3355;SDS011;1691;52.486;13.374;2024-03-08T14:11:18;15.57;;;11.73;;
3355;SDS011;1691;52.486;13.374;2024-03-08T14:13:45;16.90;;;11.90;;
3355;SDS011;1691;52.486;13.374;2024-03-08T14:16:13;20.00;;;13.60;;
3355;SDS011;1691;52.486;13.374;2024-03-08T14:18:42;23.07;;;13.10;;
3355;SDS011;1691;52.486;13.374;2024-03-08T14:21:09;17.90;;;12.27;;
3355;SDS011;1691;52.486;13.374;2024-03-08T14:23:37;18.87;;;11.07;;
3355;SDS011;1691;52.486;13.374;2024-03-08T14:26:07;20.63;;;11.73;;
3355;SDS011;1691;52.486;13.374;2024-03-08T14:28:35;26.60;;;12.20;;
3355;SDS011;1691;52.486;13.374;2024-03-08T14:31:03;19.43;;;13.50;;
3355;SDS011;1691;52.486;13.374;2024-03-08T14:33:33;20.73;;;12.93;;
3355;SDS011;1691;52.486;13.374;2024-03-08T14:36:00;19.87;;;13.67;;
3355;SDS011;1691;52.486;13.374;2024-03-08T14:38:28;21.00;;;13.37;;
3355;SDS011;1691;52.486;13.374;2024-03-08T14:40:55;17.87;;;12.73;;
3355;SDS011;1691;52.486;13.374;2024-03-08T14:43:22;18.23;;;13.30;;
3355;SDS011;1691;52.486;13.374;2024-03-08T14:45:50;21.80;;;13.37;;
3355;SDS011;1691;52.486;13.374;2024-03-08T14:48:18;16.50;;;12.53;;
3355;SDS011;1691;52.486;13.374;2024-03-08T14:50:46;19.67;;;12.10;;
3355;SDS011;1691;52.486;13.374;2024-03-08T14:53:14;16.60;;;12.10;;
3355;SDS011;1691;52.486;13.374;2024-03-08T14:55:43;21.00;;;12.53;;
3355;SDS011;1691;52.486;13.374;2024-03-08T14:58:13;16.40;;;11.40;;
3355;SDS011;1691;52.486;13.374;2024-03-08T15:00:41;14.50;;;11.40;;
3355;SDS011;1691;52.486;13.374;2024-03-08T15:03:10;15.70;;;11.13;;
3355;SDS011;1691;52.486;13.374;2024-03-08T15:05:39;18.10;;;11.40;;
3355;SDS011;1691;52.486;13.374;2024-03-08T15:08:13;15.90;;;11.20;;
3355;SDS011;1691;52.486;13.374;2024-03-08T15:10:46;18.53;;;9.73;;